createdAt,value
2022-09-12T00:01:32.297Z,16.05
2022-09-12T00:03:23.074Z,18.70
2022-09-12T00:05:13.424Z,19.08
2022-09-12T00:06:58.672Z,15.30
2022-09-12T00:08:49.194Z,19.80
2022-09-12T00:10:40.762Z,18.20
2022-09-12T00:12:32.404Z,18.88
2022-09-12T00:14:22.745Z,21.08
2022-09-12T00:16:17.325Z,16.67
2022-09-12T00:18:09.840Z,21.50
2022-09-12T00:21:50.578Z,18.85
2022-09-12T00:23:41.193Z,21.40
2022-09-12T00:25:31.491Z,18.77
2022-09-12T00:27:21.812Z,20.52
2022-09-12T00:29:16.951Z,20.67
2022-09-12T00:31:10.414Z,17.63
2022-09-12T00:33:00.833Z,18.65
2022-09-12T00:34:51.313Z,20.38
2022-09-12T00:36:41.711Z,19.25
2022-09-12T00:38:32.006Z,21.92
2022-09-12T00:40:22.590Z,17.95
2022-09-12T00:42:12.999Z,17.27
2022-09-12T00:44:19.432Z,15.65
2022-09-12T00:46:17.924Z,19.48
2022-09-12T00:48:18.934Z,17.90
2022-09-12T00:50:11.835Z,20.23
2022-09-12T00:52:06.175Z,18.33
2022-09-12T00:53:57.139Z,16.23
2022-09-12T00:55:49.998Z,19.67
2022-09-12T00:57:45.256Z,17.48
2022-09-12T00:59:39.129Z,25.45
2022-09-12T01:01:32.708Z,16.92
2022-09-12T01:03:24.214Z,23.80
2022-09-12T01:05:15.493Z,22.63
2022-09-12T01:07:06.830Z,17.75
2022-09-12T01:08:58.374Z,14.93
2022-09-12T01:10:49.033Z,25.77
2022-09-12T01:12:40.644Z,20.10
2022-09-12T01:14:31.667Z,20.17
2022-09-12T01:16:21.961Z,18.10
2022-09-12T01:18:20.141Z,16.13
2022-09-12T01:20:28.066Z,21.98
2022-09-12T01:22:30.027Z,19.30
2022-09-12T01:24:37.911Z,22.33
2022-09-12T01:26:49.834Z,19.50
2022-09-12T01:28:54.330Z,21.10
2022-09-12T01:30:48.274Z,19.80
2022-09-12T01:32:47.415Z,19.67
2022-09-12T01:34:43.624Z,17.92
2022-09-12T01:36:38.988Z,18.33
2022-09-12T01:38:34.770Z,21.73
2022-09-12T01:40:31.612Z,21.83
2022-09-12T01:42:26.919Z,20.13
2022-09-12T01:44:26.431Z,17.75
2022-09-12T01:46:19.973Z,22.50
2022-09-12T01:48:14.719Z,19.30
2022-09-12T01:50:07.297Z,22.00
2022-09-12T01:53:51.898Z,21.75
2022-09-12T01:55:44.163Z,23.92
2022-09-12T01:59:30.676Z,19.30
2022-09-12T02:01:25.507Z,21.73
2022-09-12T02:03:20.589Z,22.20
2022-09-12T02:05:16.490Z,22.35
2022-09-12T02:07:11.198Z,20.30
2022-09-12T02:09:03.846Z,20.73
2022-09-12T02:10:58.202Z,25.33
2022-09-12T02:12:52.164Z,23.85
2022-09-12T02:14:46.553Z,22.45
2022-09-12T02:16:41.208Z,22.58
2022-09-12T02:18:34.490Z,22.52
2022-09-12T02:20:46.908Z,24.58
2022-09-12T02:22:38.626Z,23.35
2022-09-12T02:24:30.773Z,25.75
2022-09-12T02:26:24.312Z,24.30
2022-09-12T02:28:17.091Z,24.55
2022-09-12T02:30:09.110Z,24.48
2022-09-12T02:32:05.721Z,25.63
2022-09-12T02:34:07.091Z,24.27
2022-09-12T02:36:01.198Z,22.67
2022-09-12T02:37:57.685Z,27.17
2022-09-12T02:39:48.392Z,22.52
2022-09-12T02:41:39.118Z,22.95
2022-09-12T02:43:29.424Z,25.85
2022-09-12T02:45:20.015Z,26.05
2022-09-12T02:47:16.619Z,24.90
2022-09-12T02:49:09.322Z,30.23
2022-09-12T02:51:00.081Z,34.67
2022-09-12T02:54:36.817Z,28.77
2022-09-12T02:56:30.305Z,26.60
2022-09-12T02:58:23.190Z,24.73
2022-09-12T03:00:14.548Z,30.20
2022-09-12T03:02:18.243Z,25.73
2022-09-12T03:04:25.891Z,27.15
2022-09-12T03:06:19.320Z,27.48
2022-09-12T03:08:35.484Z,27.88
2022-09-12T03:10:31.763Z,27.63
2022-09-12T03:12:34.537Z,29.60
2022-09-12T03:14:43.728Z,26.52
2022-09-12T03:16:41.560Z,26.73
2022-09-12T03:18:41.390Z,25.48
2022-09-12T03:20:41.272Z,26.83
2022-09-12T03:22:34.867Z,25.20
2022-09-12T03:24:30.228Z,27.30
2022-09-12T03:26:26.372Z,23.52
2022-09-12T03:28:17.773Z,24.55
2022-09-12T03:30:09.240Z,27.27
2022-09-12T03:31:59.504Z,27.13
2022-09-12T03:33:51.152Z,29.17
2022-09-12T03:35:42.176Z,25.85
2022-09-12T03:37:32.457Z,28.77
2022-09-12T03:39:23.967Z,26.70
2022-09-12T03:41:14.405Z,30.60
2022-09-12T03:43:05.052Z,29.48
2022-09-12T03:44:55.825Z,26.95
2022-09-12T03:46:46.347Z,23.25
2022-09-12T03:48:36.938Z,27.35
2022-09-12T03:50:28.895Z,28.75
2022-09-12T03:52:19.791Z,28.45
2022-09-12T03:54:10.885Z,26.40
2022-09-12T03:56:05.212Z,24.17
2022-09-12T03:57:55.933Z,28.20
2022-09-12T03:59:48.181Z,27.27
2022-09-12T04:03:28.967Z,25.77
2022-09-12T04:05:19.461Z,31.13
2022-09-12T04:07:11.436Z,26.42
2022-09-12T04:09:01.978Z,31.20
2022-09-12T04:10:52.475Z,28.13
2022-09-12T04:12:43.142Z,28.20
2022-09-12T04:14:33.629Z,25.23
2022-09-12T04:16:24.330Z,27.17
2022-09-12T04:18:15.093Z,25.35
2022-09-12T04:20:06.118Z,25.67
2022-09-12T04:21:56.517Z,27.23
2022-09-12T04:23:48.394Z,28.00
2022-09-12T04:25:38.872Z,26.50
2022-09-12T04:27:29.342Z,26.08
2022-09-12T04:29:19.957Z,27.90
2022-09-12T04:31:13.925Z,30.25
2022-09-12T04:33:08.040Z,28.73
2022-09-12T04:34:58.794Z,24.75
2022-09-12T04:36:49.266Z,28.00
2022-09-12T04:38:39.779Z,24.90
2022-09-12T04:40:31.709Z,28.08
2022-09-12T04:42:22.443Z,27.88
2022-09-12T04:44:14.252Z,29.92
2022-09-12T04:46:05.870Z,26.17
2022-09-12T04:47:56.366Z,30.10
2022-09-12T04:49:48.674Z,31.17
2022-09-12T04:51:40.633Z,28.15
2022-09-12T04:55:22.162Z,35.40
2022-09-12T04:57:13.941Z,28.42
2022-09-12T04:59:04.618Z,28.02
2022-09-12T05:00:55.228Z,28.67
2022-09-12T05:02:45.624Z,29.83
2022-09-12T05:04:36.140Z,30.05
2022-09-12T05:06:28.551Z,29.65
2022-09-12T05:08:19.427Z,28.20
2022-09-12T05:10:10.194Z,35.47
2022-09-12T05:12:05.230Z,32.00
2022-09-12T05:13:57.440Z,28.63
2022-09-12T05:15:54.622Z,35.63
2022-09-12T05:17:44.932Z,31.25
2022-09-12T05:19:35.455Z,30.85
2022-09-12T05:21:27.142Z,31.98
2022-09-12T05:23:17.691Z,31.92
2022-09-12T05:25:09.532Z,39.17
2022-09-12T05:27:00.090Z,32.83
2022-09-12T05:28:51.559Z,35.60
2022-09-12T05:30:43.488Z,30.65
2022-09-12T05:32:34.079Z,31.88
2022-09-12T05:34:24.566Z,36.38
2022-09-12T05:36:16.483Z,30.85
2022-09-12T05:38:07.423Z,36.90
2022-09-12T05:39:57.894Z,38.55
2022-09-12T05:41:48.375Z,34.65
2022-09-12T05:43:39.556Z,38.67
2022-09-12T05:45:30.005Z,35.85
2022-09-12T05:47:22.312Z,34.50
2022-09-12T05:51:05.531Z,33.90
2022-09-12T05:52:57.052Z,36.38
2022-09-12T05:54:48.750Z,36.17
2022-09-12T05:56:41.066Z,35.05
2022-09-12T05:58:31.506Z,37.78
2022-09-12T06:00:21.899Z,37.17
2022-09-12T06:02:12.278Z,35.53
2022-09-12T06:04:05.299Z,38.40
2022-09-12T06:05:55.832Z,35.97
2022-09-12T06:07:46.251Z,40.00
2022-09-12T06:09:36.902Z,37.13
2022-09-12T06:11:29.109Z,37.20
2022-09-12T06:13:19.531Z,40.40
2022-09-12T06:15:10.709Z,37.03
2022-09-12T06:17:01.116Z,37.67
2022-09-12T06:18:54.205Z,36.90
2022-09-12T06:20:45.992Z,37.83
2022-09-12T06:22:36.757Z,41.60
2022-09-12T06:24:27.402Z,42.63
2022-09-12T06:26:18.881Z,36.70
2022-09-12T06:28:09.714Z,46.53
2022-09-12T06:30:00.391Z,45.83
2022-09-12T06:31:50.697Z,44.53
2022-09-12T06:33:42.527Z,43.65
2022-09-12T06:35:36.429Z,46.47
2022-09-12T06:39:20.254Z,41.97
2022-09-12T06:41:11.767Z,49.00
2022-09-12T06:43:02.099Z,43.13
2022-09-12T06:44:52.516Z,48.00
2022-09-12T06:46:42.911Z,45.50
2022-09-12T06:48:35.068Z,44.53
2022-09-12T06:50:26.819Z,50.25
2022-09-12T06:52:17.209Z,49.30
2022-09-12T06:54:09.425Z,48.85
2022-09-12T06:56:01.417Z,44.50
2022-09-12T06:59:42.243Z,44.70
2022-09-12T07:01:33.347Z,44.92
2022-09-12T07:03:23.910Z,45.58
2022-09-12T07:05:14.358Z,43.20
2022-09-12T07:07:04.935Z,45.47
2022-09-12T07:08:56.954Z,43.85
2022-09-12T07:10:49.199Z,41.35
2022-09-12T07:12:40.013Z,47.88
2022-09-12T07:14:30.415Z,41.85
2022-09-12T07:16:21.334Z,38.58
2022-09-12T07:18:11.650Z,40.78
2022-09-12T07:20:03.017Z,43.33
2022-09-12T07:21:56.613Z,40.13
2022-09-12T07:23:49.891Z,42.78
2022-09-12T07:25:40.483Z,37.78
2022-09-12T07:27:32.580Z,40.72
2022-09-12T07:29:36.549Z,38.35
2022-09-12T07:31:28.366Z,42.65
2022-09-12T07:33:19.103Z,43.80
2022-09-12T07:35:09.624Z,43.13
2022-09-12T07:37:00.088Z,41.65
2022-09-12T07:38:57.250Z,43.13
2022-09-12T07:40:47.980Z,32.90
2022-09-12T07:42:39.902Z,42.00
2022-09-12T07:44:30.666Z,35.22
2022-09-12T07:46:21.871Z,37.45
2022-09-12T07:48:12.078Z,42.78
2022-09-12T07:50:03.351Z,35.45
2022-09-12T07:51:53.733Z,42.90
2022-09-12T07:53:44.365Z,38.03
2022-09-12T07:55:34.694Z,36.17
2022-09-12T07:57:25.052Z,38.83
2022-09-12T07:59:35.319Z,40.15
2022-09-12T08:01:27.399Z,37.17
2022-09-12T08:03:17.777Z,38.95
2022-09-12T08:05:08.862Z,35.67
2022-09-12T08:06:59.427Z,37.75
2022-09-12T08:08:50.686Z,34.22
2022-09-12T08:10:41.262Z,34.58
2022-09-12T08:12:31.654Z,40.05
2022-09-12T08:14:23.718Z,31.42
2022-09-12T08:16:15.779Z,35.38
2022-09-12T08:18:06.539Z,36.38
2022-09-12T08:19:57.139Z,35.25
2022-09-12T08:21:47.316Z,33.03
2022-09-12T08:23:37.847Z,30.20
2022-09-12T08:25:28.183Z,34.33
2022-09-12T08:27:18.679Z,28.65
2022-09-12T08:29:09.387Z,20.95
2022-09-12T08:31:02.751Z,19.52
2022-09-12T08:32:53.259Z,21.20
2022-09-12T08:34:43.679Z,23.48
2022-09-12T08:36:34.738Z,18.35
2022-09-12T08:38:25.195Z,23.67
2022-09-12T08:40:16.820Z,19.85
2022-09-12T08:44:37.954Z,20.08
2022-09-12T08:46:34.135Z,18.20
2022-09-12T08:48:24.695Z,20.00
2022-09-12T08:50:17.632Z,19.33
2022-09-12T08:52:14.585Z,18.15
2022-09-12T08:54:05.964Z,16.02
2022-09-12T08:55:58.889Z,16.90
2022-09-12T08:57:49.694Z,15.60
2022-09-12T08:59:42.581Z,15.05
2022-09-12T09:01:37.625Z,17.38
2022-09-12T09:03:45.724Z,15.32
2022-09-12T09:05:45.601Z,17.88
2022-09-12T09:07:56.186Z,15.57
2022-09-12T09:09:58.355Z,15.70
2022-09-12T09:11:56.685Z,17.23
2022-09-12T09:13:57.576Z,13.90
2022-09-12T09:17:45.252Z,13.18
2022-09-12T09:19:39.389Z,14.73
2022-09-12T09:21:32.683Z,12.27
2022-09-12T09:23:26.629Z,13.02
2022-09-12T09:25:22.855Z,13.30
2022-09-12T09:27:39.262Z,13.65
2022-09-12T09:29:33.474Z,16.83
2022-09-12T09:31:26.461Z,12.88
2022-09-12T09:33:21.552Z,12.85
2022-09-12T09:35:16.209Z,16.17
2022-09-12T09:37:11.925Z,10.85
2022-09-12T09:39:05.202Z,11.65
2022-09-12T09:41:05.859Z,8.77
2022-09-12T09:43:00.433Z,12.63
2022-09-12T09:44:53.497Z,12.77
2022-09-12T09:46:43.917Z,11.73
2022-09-12T09:48:36.965Z,12.93
2022-09-12T09:50:27.997Z,15.95
2022-09-12T09:52:24.463Z,11.52
2022-09-12T09:54:18.927Z,7.43
2022-09-12T09:56:12.272Z,9.82
2022-09-12T09:58:04.057Z,9.15
2022-09-12T09:59:54.436Z,6.90
2022-09-12T10:01:46.553Z,10.30
2022-09-12T10:03:39.718Z,9.13
2022-09-12T10:05:33.210Z,9.82
2022-09-12T10:07:24.688Z,8.90
2022-09-12T10:09:21.412Z,10.93
2022-09-12T10:11:19.409Z,7.40
2022-09-12T10:13:22.461Z,6.15
2022-09-12T10:15:20.940Z,5.93
2022-09-12T10:17:27.921Z,7.72
2022-09-12T10:19:23.358Z,5.97
2022-09-12T10:21:16.648Z,9.32
2022-09-12T10:23:26.455Z,5.65
2022-09-12T10:25:18.766Z,8.95
2022-09-12T10:27:14.971Z,9.43
2022-09-12T10:29:16.695Z,5.68
2022-09-12T10:31:07.659Z,6.75
2022-09-12T10:33:05.515Z,6.85
2022-09-12T10:34:59.907Z,8.93
2022-09-12T10:36:53.046Z,8.10
2022-09-12T10:38:49.551Z,9.10
2022-09-12T10:40:43.132Z,6.53
2022-09-12T10:42:48.904Z,6.40
2022-09-12T10:44:39.292Z,9.35
2022-09-12T10:46:31.063Z,7.32
2022-09-12T10:48:25.680Z,9.90
2022-09-12T10:50:25.557Z,8.45
2022-09-12T10:52:17.886Z,11.40
2022-09-12T10:56:04.191Z,8.80
2022-09-12T10:58:08.663Z,10.52
2022-09-12T11:00:06.846Z,10.27
2022-09-12T11:02:00.872Z,9.90
2022-09-12T11:04:04.350Z,11.45
2022-09-12T11:05:58.655Z,7.18
2022-09-12T11:07:50.591Z,13.85
2022-09-12T11:09:44.426Z,10.55
2022-09-12T11:11:41.656Z,11.93
2022-09-12T11:13:46.610Z,7.93
2022-09-12T11:15:46.717Z,9.98
2022-09-12T11:17:45.879Z,10.20
2022-09-12T11:19:57.801Z,8.20
2022-09-12T11:22:02.371Z,11.63
2022-09-12T11:24:22.631Z,15.60
2022-09-12T11:26:25.168Z,10.63
2022-09-12T11:28:23.834Z,10.43
2022-09-12T11:30:15.804Z,9.30
2022-09-12T11:34:20.873Z,14.40
2022-09-12T11:36:20.771Z,6.43
2022-09-12T11:38:38.076Z,11.77
2022-09-12T11:40:31.625Z,5.15
2022-09-12T11:42:30.123Z,7.53
2022-09-12T11:44:24.463Z,8.80
2022-09-12T11:46:19.122Z,6.30
2022-09-12T11:48:14.309Z,6.10
2022-09-12T11:50:13.305Z,7.30
2022-09-12T11:52:06.506Z,6.13
2022-09-12T11:54:11.248Z,8.73
2022-09-12T11:56:12.508Z,7.72
2022-09-12T11:58:03.245Z,5.25
2022-09-12T11:59:56.791Z,5.70
2022-09-12T12:01:48.994Z,8.63
2022-09-12T12:03:41.877Z,8.30
2022-09-12T12:05:37.586Z,11.90
2022-09-12T12:07:30.100Z,9.65
2022-09-12T12:11:13.386Z,7.45
2022-09-12T12:13:10.728Z,8.57
2022-09-12T12:15:04.397Z,9.35
2022-09-12T12:16:55.570Z,6.35
2022-09-12T12:18:46.311Z,7.53
2022-09-12T12:20:36.717Z,5.90
2022-09-12T12:22:27.155Z,8.15
2022-09-12T12:24:20.751Z,7.05
2022-09-12T12:26:43.179Z,7.38
2022-09-12T12:28:55.830Z,7.28
2022-09-12T12:31:01.406Z,7.72
2022-09-12T12:32:51.701Z,11.10
2022-09-12T12:34:43.026Z,9.20
2022-09-12T12:36:36.648Z,8.20
2022-09-12T12:38:28.674Z,9.55
2022-09-12T12:40:23.331Z,12.07
2022-09-12T12:43:02.346Z,7.35
2022-09-12T12:44:54.340Z,10.40
2022-09-12T12:47:08.323Z,5.88
2022-09-12T12:49:05.960Z,8.05
2022-09-12T12:51:27.985Z,9.45
2022-09-12T12:53:21.986Z,9.40
2022-09-12T12:55:15.333Z,7.95
2022-09-12T12:57:17.440Z,9.68
2022-09-12T12:59:17.778Z,7.88
2022-09-12T13:01:13.690Z,6.90
2022-09-12T13:03:11.258Z,13.95
2022-09-12T13:05:05.059Z,11.05
2022-09-12T13:06:58.741Z,14.20
2022-09-12T13:08:58.203Z,10.88
2022-09-12T13:10:50.838Z,6.70
2022-09-12T13:12:45.405Z,7.03
2022-09-12T13:14:52.927Z,7.50
2022-09-12T13:16:54.660Z,8.20
2022-09-12T13:18:47.009Z,11.17
2022-09-12T13:20:47.427Z,7.60
2022-09-12T13:22:42.486Z,8.60
2022-09-12T13:24:33.106Z,13.75
2022-09-12T13:26:25.074Z,11.07
2022-09-12T13:28:17.769Z,10.13
2022-09-12T13:30:09.258Z,9.98
2022-09-12T13:32:02.562Z,8.80
2022-09-12T13:33:55.600Z,6.18
2022-09-12T13:36:10.306Z,13.90
2022-09-12T13:38:06.044Z,7.22
2022-09-12T13:40:06.069Z,5.65
2022-09-12T13:42:32.967Z,5.82
2022-09-12T13:44:24.509Z,8.13
2022-09-12T13:46:17.655Z,8.90
2022-09-12T13:48:15.121Z,9.98
2022-09-12T13:50:07.818Z,8.40
2022-09-12T13:52:01.407Z,10.73
2022-09-12T13:53:53.577Z,7.20
2022-09-12T13:55:48.227Z,10.95
2022-09-12T13:57:39.697Z,9.02
2022-09-12T13:59:38.303Z,5.80
2022-09-12T14:01:38.747Z,8.40
2022-09-12T14:03:32.152Z,7.30
2022-09-12T14:05:25.066Z,5.00
2022-09-12T14:07:18.040Z,9.13
2022-09-12T14:09:13.206Z,9.20
2022-09-12T14:11:08.254Z,5.13
2022-09-12T14:12:59.370Z,6.53
2022-09-12T14:14:50.857Z,6.83
2022-09-12T14:16:41.431Z,7.70
2022-09-12T14:18:34.327Z,7.88
2022-09-12T14:20:24.809Z,4.40
2022-09-12T14:22:15.397Z,6.43
2022-09-12T14:24:07.175Z,7.68
2022-09-12T14:25:59.768Z,4.15
2022-09-12T14:27:52.183Z,7.82
2022-09-12T14:29:42.961Z,5.15
2022-09-12T14:31:36.515Z,8.13
2022-09-12T14:33:27.274Z,7.35
2022-09-12T14:35:20.027Z,4.82
2022-09-12T14:37:12.550Z,8.77
2022-09-12T14:39:04.615Z,4.35
2022-09-12T14:42:51.214Z,6.13
2022-09-12T14:44:43.502Z,9.20
2022-09-12T14:46:35.991Z,4.55
2022-09-12T14:48:27.822Z,7.18
2022-09-12T14:50:22.623Z,5.43
2022-09-12T14:52:24.265Z,10.13
2022-09-12T14:54:40.044Z,9.00
2022-09-12T14:56:41.703Z,6.10
2022-09-12T14:58:32.800Z,4.97
2022-09-12T15:00:23.597Z,5.45
2022-09-12T15:02:26.138Z,5.20
2022-09-12T15:04:38.002Z,6.38
2022-09-12T15:06:31.444Z,9.68
2022-09-12T15:08:21.890Z,6.93
2022-09-12T15:10:18.103Z,7.43
2022-09-12T15:12:09.466Z,7.10
2022-09-12T15:14:06.764Z,6.87
2022-09-12T15:15:58.897Z,9.52
2022-09-12T15:17:49.724Z,5.60
2022-09-12T15:19:40.432Z,7.47
2022-09-12T15:21:32.185Z,8.93
2022-09-12T15:23:31.280Z,6.95
2022-09-12T15:25:21.922Z,6.28
2022-09-12T15:27:12.372Z,8.80
2022-09-12T15:29:03.442Z,9.00
2022-09-12T15:30:55.303Z,6.68
2022-09-12T15:32:45.931Z,10.10
2022-09-12T15:34:36.411Z,8.73
2022-09-12T15:36:27.811Z,9.15
2022-09-12T15:38:24.294Z,8.60
2022-09-12T15:40:17.451Z,4.18
2022-09-12T15:42:09.075Z,6.90
2022-09-12T15:43:59.782Z,7.55
2022-09-12T15:45:50.859Z,7.65
2022-09-12T15:47:41.503Z,10.45
2022-09-12T15:49:32.137Z,10.07
2022-09-12T15:51:22.753Z,7.10
2022-09-12T15:53:15.084Z,11.90
2022-09-12T15:55:11.799Z,7.15
2022-09-12T15:57:02.906Z,8.30
2022-09-12T15:59:01.077Z,6.93
2022-09-12T16:00:51.775Z,10.95
2022-09-12T16:02:42.399Z,6.50
2022-09-12T16:04:32.970Z,6.38
2022-09-12T16:06:23.903Z,7.82
2022-09-12T16:08:14.666Z,8.80
2022-09-12T16:10:08.031Z,6.63
2022-09-12T16:11:58.806Z,6.80
2022-09-12T16:13:49.270Z,12.20
2022-09-12T16:15:40.047Z,9.45
2022-09-12T16:17:30.737Z,9.52
2022-09-12T16:19:21.763Z,11.13
2022-09-12T16:21:15.557Z,9.68
2022-09-12T16:23:06.507Z,8.07
2022-09-12T16:24:57.037Z,13.40
2022-09-12T16:26:49.015Z,6.45
2022-09-12T16:28:39.453Z,8.73
2022-09-12T16:30:29.950Z,9.93
2022-09-12T16:32:20.236Z,9.68
2022-09-12T16:34:11.290Z,10.88
2022-09-12T16:36:02.199Z,5.75
2022-09-12T16:37:52.767Z,7.93
2022-09-12T16:39:43.341Z,10.65
2022-09-12T16:41:33.975Z,9.63
2022-09-12T16:43:25.662Z,9.07
2022-09-12T16:47:06.911Z,10.70
2022-09-12T16:48:58.446Z,7.85
2022-09-12T16:50:56.416Z,8.40
2022-09-12T16:52:46.819Z,10.73
2022-09-12T16:54:37.218Z,11.63
2022-09-12T16:56:27.909Z,9.32
2022-09-12T16:58:19.044Z,6.75
2022-09-12T17:00:12.094Z,7.22
2022-09-12T17:02:02.821Z,7.70
2022-09-12T17:03:53.986Z,5.30
2022-09-12T17:05:44.588Z,8.15
2022-09-12T17:07:35.048Z,5.15
2022-09-12T17:09:25.459Z,8.85
2022-09-12T17:11:18.038Z,7.07
2022-09-12T17:13:08.536Z,8.35
2022-09-12T17:14:59.204Z,9.38
2022-09-12T17:16:52.131Z,7.55
2022-09-12T17:18:42.798Z,5.78
2022-09-12T17:20:35.587Z,9.05
2022-09-12T17:22:25.973Z,12.13
2022-09-12T17:24:16.462Z,14.25
2022-09-12T17:26:07.315Z,7.07
2022-09-12T17:27:57.760Z,9.55
2022-09-12T17:29:48.284Z,8.85
2022-09-12T17:31:39.164Z,5.03
2022-09-12T17:33:31.397Z,10.48
2022-09-12T17:35:21.794Z,5.57
2022-09-12T17:37:12.232Z,12.27
2022-09-12T17:39:03.442Z,6.15
2022-09-12T17:40:59.807Z,6.22
2022-09-12T17:42:50.982Z,9.10
2022-09-12T17:44:41.938Z,6.88
2022-09-12T17:46:34.298Z,5.75
2022-09-12T17:48:24.976Z,9.75
2022-09-12T17:50:31.277Z,8.95
2022-09-12T17:52:23.113Z,8.10
2022-09-12T17:54:15.811Z,7.82
2022-09-12T17:56:07.183Z,7.70
2022-09-12T17:57:59.212Z,8.82
2022-09-12T17:59:49.699Z,8.43
2022-09-12T18:01:40.073Z,14.20
2022-09-12T18:03:30.654Z,4.88
2022-09-12T18:05:22.444Z,6.35
2022-09-12T18:07:13.058Z,7.82
2022-09-12T18:09:04.837Z,6.28
2022-09-12T18:11:03.962Z,6.75
2022-09-12T18:12:54.452Z,6.25
2022-09-12T18:14:45.236Z,7.65
2022-09-12T18:16:36.210Z,4.43
2022-09-12T18:18:26.763Z,6.55
2022-09-12T18:20:17.329Z,9.90
2022-09-12T18:22:09.233Z,6.15
2022-09-12T18:24:01.446Z,5.80
2022-09-12T18:25:57.377Z,11.32
2022-09-12T18:27:47.934Z,12.65
2022-09-12T18:29:38.738Z,9.95
2022-09-12T18:31:30.707Z,7.20
2022-09-12T18:33:24.034Z,7.65
2022-09-12T18:35:15.121Z,7.00
2022-09-12T18:37:05.549Z,7.22
2022-09-12T18:38:59.179Z,7.60
2022-09-12T18:40:49.791Z,10.57
2022-09-12T18:42:40.436Z,9.40
2022-09-12T18:44:31.135Z,9.90
2022-09-12T18:46:22.071Z,9.98
2022-09-12T18:48:12.652Z,12.45
2022-09-12T18:50:03.194Z,8.75
2022-09-12T18:51:53.794Z,11.38
2022-09-12T18:53:49.206Z,8.88
2022-09-12T18:55:41.419Z,8.70
2022-09-12T18:57:32.160Z,16.48
2022-09-12T18:59:22.587Z,11.18
2022-09-12T19:01:14.638Z,9.13
2022-09-12T19:03:05.481Z,9.48
2022-09-12T19:04:55.899Z,10.00
2022-09-12T19:06:48.242Z,11.77
2022-09-12T19:08:38.993Z,9.45
2022-09-12T19:10:29.787Z,8.65
2022-09-12T19:12:21.723Z,7.15
2022-09-12T19:14:12.538Z,6.43
2022-09-12T19:16:04.190Z,5.88
2022-09-12T19:17:54.964Z,15.48
2022-09-12T19:19:45.758Z,7.60
2022-09-12T19:21:36.249Z,8.18
2022-09-12T19:23:27.311Z,12.38
2022-09-12T19:25:18.274Z,9.30
2022-09-12T19:27:09.540Z,7.75
2022-09-12T19:29:01.533Z,8.77
2022-09-12T19:30:52.264Z,8.50
2022-09-12T19:32:43.122Z,7.40
2022-09-12T19:34:33.460Z,9.80
2022-09-12T19:38:34.562Z,8.80
2022-09-12T19:40:25.022Z,9.77
2022-09-12T19:42:16.076Z,7.65
2022-09-12T19:44:08.638Z,10.73
2022-09-12T19:47:53.259Z,8.93
2022-09-12T19:49:43.801Z,8.77
2022-09-12T19:51:34.302Z,9.32
2022-09-12T19:53:24.670Z,11.05
2022-09-12T19:55:15.574Z,8.70
2022-09-12T19:57:06.013Z,9.30
2022-09-12T19:58:56.922Z,9.85
2022-09-12T20:00:49.375Z,8.18
2022-09-12T20:02:40.033Z,9.77
2022-09-12T20:04:32.113Z,10.18
2022-09-12T20:06:22.927Z,6.53
2022-09-12T20:08:13.842Z,13.43
2022-09-12T20:10:05.302Z,12.75
2022-09-12T20:11:55.591Z,10.10
2022-09-12T20:13:46.364Z,7.57
2022-09-12T20:15:36.860Z,7.53
2022-09-12T20:17:29.027Z,10.07
2022-09-12T20:19:19.631Z,10.07
2022-09-12T20:21:12.297Z,10.73
2022-09-12T20:23:03.014Z,8.98
2022-09-12T20:24:53.733Z,10.20
2022-09-12T20:26:44.469Z,9.50
2022-09-12T20:28:35.071Z,10.35
2022-09-12T20:30:25.843Z,15.13
2022-09-12T20:32:18.797Z,15.20
2022-09-12T20:34:14.758Z,11.43
2022-09-12T20:36:07.608Z,8.25
2022-09-12T20:37:58.141Z,10.35
2022-09-12T20:39:50.870Z,15.77
2022-09-12T20:41:41.949Z,7.85
2022-09-12T20:43:32.454Z,12.75
2022-09-12T20:45:23.186Z,8.77
2022-09-12T20:47:13.926Z,11.55
2022-09-12T20:49:04.372Z,15.23
2022-09-12T20:51:00.131Z,11.25
2022-09-12T20:52:50.424Z,13.38
2022-09-12T20:54:40.813Z,11.80
2022-09-12T20:56:32.952Z,9.75
2022-09-12T20:58:23.791Z,13.93
2022-09-12T21:00:15.124Z,10.98
2022-09-12T21:02:05.685Z,13.05
2022-09-12T21:03:56.347Z,13.32
2022-09-12T21:05:47.201Z,11.75
2022-09-12T21:07:38.859Z,11.27
2022-09-12T21:09:29.125Z,9.98
2022-09-12T21:11:20.327Z,12.98
2022-09-12T21:13:11.376Z,10.20
2022-09-12T21:15:02.095Z,12.77
2022-09-12T21:16:52.440Z,10.23
2022-09-12T21:18:43.578Z,13.10
2022-09-12T21:20:33.953Z,10.70
2022-09-12T21:22:24.363Z,11.48
2022-09-12T21:24:16.453Z,15.30
2022-09-12T21:26:07.448Z,9.13
2022-09-12T21:27:58.046Z,9.93
2022-09-12T21:29:48.676Z,12.23
2022-09-12T21:31:39.613Z,8.60
2022-09-12T21:33:30.282Z,11.25
2022-09-12T21:35:20.961Z,14.77
2022-09-12T21:37:11.604Z,11.45
2022-09-12T21:39:05.487Z,15.27
2022-09-12T21:41:04.453Z,11.93
2022-09-12T21:42:55.063Z,17.30
2022-09-12T21:44:45.502Z,10.88
2022-09-12T21:46:36.211Z,8.25
2022-09-12T21:48:27.379Z,10.25
2022-09-12T21:50:18.048Z,12.98
2022-09-12T21:52:08.926Z,9.98
2022-09-12T21:53:59.812Z,10.77
2022-09-12T21:55:50.603Z,9.95
2022-09-12T21:57:42.488Z,13.25
2022-09-12T22:01:24.089Z,12.20
2022-09-12T22:03:14.456Z,12.57
2022-09-12T22:05:05.523Z,11.27
2022-09-12T22:06:56.151Z,10.60
2022-09-12T22:08:46.870Z,11.82
2022-09-12T22:10:37.537Z,8.05
2022-09-12T22:12:27.953Z,12.18
2022-09-12T22:14:19.980Z,13.35
2022-09-12T22:16:11.064Z,9.40
2022-09-12T22:18:01.648Z,11.80
2022-09-12T22:19:52.145Z,10.32
2022-09-12T22:21:42.569Z,10.57
2022-09-12T22:23:32.997Z,14.02
2022-09-12T22:25:23.923Z,20.85
2022-09-12T22:27:14.406Z,10.35
2022-09-12T22:29:04.869Z,10.95
2022-09-12T22:30:56.638Z,11.32
2022-09-12T22:32:47.024Z,11.52
2022-09-12T22:34:37.565Z,9.88
2022-09-12T22:36:31.110Z,12.75
2022-09-12T22:38:22.201Z,14.65
2022-09-12T22:40:12.760Z,11.75
2022-09-12T22:42:03.395Z,11.20
2022-09-12T22:43:54.169Z,12.32
2022-09-12T22:45:44.488Z,11.32
2022-09-12T22:47:36.199Z,16.33
2022-09-12T22:49:26.693Z,12.82
2022-09-12T22:51:17.073Z,8.43
2022-09-12T22:53:07.266Z,10.60
2022-09-12T22:54:57.663Z,10.10
2022-09-12T22:56:48.172Z,13.40
2022-09-12T22:58:38.772Z,16.52
2022-09-12T23:00:29.615Z,11.65
2022-09-12T23:02:20.280Z,12.93
2022-09-12T23:04:12.228Z,9.90
2022-09-12T23:06:02.965Z,10.75
2022-09-12T23:07:53.353Z,12.10
2022-09-12T23:09:43.915Z,12.35
2022-09-12T23:11:34.594Z,11.98
2022-09-12T23:13:24.934Z,10.50
2022-09-12T23:15:15.467Z,12.55
2022-09-12T23:17:05.839Z,12.00
2022-09-12T23:18:56.339Z,10.00
2022-09-12T23:20:58.026Z,11.35
2022-09-12T23:22:48.610Z,10.98
2022-09-12T23:24:39.135Z,11.60
2022-09-12T23:26:29.541Z,10.77
2022-09-12T23:28:19.883Z,9.85
2022-09-12T23:30:11.375Z,12.23
2022-09-12T23:32:02.765Z,9.32
2022-09-12T23:33:53.936Z,11.00
2022-09-12T23:35:44.642Z,9.88
2022-09-12T23:37:36.656Z,12.45
2022-09-12T23:39:27.389Z,17.00
2022-09-12T23:41:18.525Z,12.40
2022-09-12T23:43:09.143Z,12.60
2022-09-12T23:44:59.665Z,10.35
2022-09-12T23:46:50.235Z,8.23
2022-09-12T23:48:40.766Z,11.63
2022-09-12T23:50:31.561Z,13.10
2022-09-12T23:52:22.057Z,11.07
2022-09-12T23:54:14.002Z,9.80
2022-09-12T23:56:05.678Z,11.27
2022-09-12T23:57:55.972Z,10.52
2022-09-12T23:59:49.034Z,17.83
